Terminal Aerodrome Forecast
Issued by NWS

Home | Current Version | Previous Version | Text Only | Print | Product List | Glossary On
Versions: 1 2 3 4 5 6 7 8 9 10 11 12 13 14 15 16 17 18 19 20 21 22 23 24 25 26 27 28 29 30 31 32
000
FTUS45 KPSR 171100
TAFPHX
TAF
KPHX 171120Z 1712/1812 09008KT P6SM -SHRA BKN100 OVC150
     FM171500 12012KT P6SM VCSH BKN100 OVC150
     FM171800 12015KT P6SM -SHRA BKN080 BKN120
     FM180300 12007KT P6SM VCSH OVC100=

USA.gov is the U.S. government's official web portal to all federal, state and local government web resources and services.